Time;durP1;ratioP1;P1;durP2;ratioP2;P2;SDS_P1;SDS_P2;PMS_P1;PMS_P2;Temp;Humidity;BMP_temperature;BMP_pressure;BME280_temperature;BME280_humidity;BME280_pressure;Samples;Min_cycle;Max_cycle;Signal;HPM_P1;HPM_P2
2022/11/06 00:00:07;;;;;;;7.10;3.50;;;;;;;12.07;74.63;101416.41;105314;1264;71163;-75
2022/11/06 00:02:58;;;;;;;10.70;4.10;;;;;;;12.08;74.61;101418.09;105153;1263;74647;-71
2022/11/06 00:08:26;;;;;;;6.40;3.40;;;;;;;12.05;74.70;101425.41;105294;1267;60502;-71
2022/11/06 00:10:55;;;;;;;8.90;3.90;;;;;;;12.05;74.58;101428.23;105251;1263;72985;-74
2022/11/06 00:13:24;;;;;;;11.50;3.80;;;;;;;12.06;74.38;101426.77;105437;1272;62525;-72
2022/11/06 00:15:53;;;;;;;7.10;3.70;;;;;;;12.03;74.57;101425.20;105370;1277;59025;-72
2022/11/06 00:18:25;;;;;;;9.00;3.70;;;;;;;12.03;74.47;101425.56;105387;1270;62735;-72
2022/11/06 00:20:54;;;;;;;10.30;3.80;;;;;;;12.02;74.47;101426.16;105411;1266;61585;-74
2022/11/06 00:23:23;;;;;;;7.20;3.70;;;;;;;12.01;74.24;101425.86;105396;1266;60512;-72
2022/11/06 00:25:55;;;;;;;14.20;4.00;;;;;;;12.00;74.39;101427.20;105440;1267;62391;-71
2022/11/06 00:28:24;;;;;;;10.90;4.00;;;;;;;11.99;74.31;101427.73;105585;1267;61605;-71
2022/11/06 00:31:04;;;;;;;8.50;3.70;;;;;;;11.97;74.16;101428.77;105546;1269;70704;-72
2022/11/06 00:33:34;;;;;;;7.40;3.50;;;;;;;11.97;73.85;101424.59;105543;1270;63534;-72
2022/11/06 00:36:06;;;;;;;7.20;3.80;;;;;;;11.92;73.99;101424.06;105520;1261;62716;-73
2022/11/06 00:38:35;;;;;;;9.20;3.70;;;;;;;11.90;73.87;101420.87;105553;1266;61528;-73
2022/11/06 00:41:06;;;;;;;10.80;3.90;;;;;;;11.89;73.61;101418.80;105465;1275;73545;-74
2022/11/06 00:43:35;;;;;;;7.40;4.10;;;;;;;11.87;73.38;101417.23;105247;1277;61362;-72
2022/11/06 00:46:12;;;;;;;9.00;3.80;;;;;;;11.78;73.49;101413.93;105398;1267;68215;-73
2022/11/06 00:48:41;;;;;;;7.90;3.60;;;;;;;11.79;73.40;101418.41;105304;1275;63150;-72
2022/11/06 00:51:16;;;;;;;9.20;3.60;;;;;;;11.77;73.09;101419.92;105267;1275;57923;-72
2022/11/06 00:53:45;;;;;;;6.10;3.10;;;;;;;11.78;72.99;101423.17;105418;1263;59077;-74
2022/11/06 00:56:18;;;;;;;7.70;4.00;;;;;;;11.76;73.01;101421.95;105434;1266;62058;-75
2022/11/06 00:58:47;;;;;;;9.40;3.20;;;;;;;11.70;72.98;101416.91;105377;1264;71259;-73
2022/11/06 01:01:26;;;;;;;7.00;3.60;;;;;;;11.66;73.25;101418.58;105234;1273;59076;-72
2022/11/06 01:04:10;;;;;;;5.50;3.50;;;;;;;11.63;73.10;101421.39;105349;1266;62414;-72
2022/11/06 01:06:48;;;;;;;9.60;4.10;;;;;;;11.58;73.18;101425.91;105303;1275;57473;-72
2022/11/06 01:09:21;;;;;;;7.10;3.60;;;;;;;11.55;73.07;101431.02;105344;1274;57485;-71
2022/11/06 01:11:54;;;;;;;8.50;3.50;;;;;;;11.56;73.00;101429.17;105355;1270;71749;-73
2022/11/06 01:14:42;;;;;;;7.30;3.70;;;;;;;11.54;72.53;101429.32;105433;1266;61407;-72
2022/11/06 01:17:12;;;;;;;7.50;3.90;;;;;;;11.54;72.57;101427.91;105495;1266;59758;-72
2022/11/06 01:19:40;;;;;;;10.80;4.10;;;;;;;11.54;72.50;101431.23;105475;1270;72882;-72
2022/11/06 01:22:09;;;;;;;7.30;3.50;;;;;;;11.49;72.41;101431.52;105394;1270;62016;-71
2022/11/06 01:24:38;;;;;;;8.30;3.50;;;;;;;11.50;72.36;101432.05;105437;1267;59458;-71
2022/11/06 01:27:08;;;;;;;7.60;3.40;;;;;;;11.49;72.03;101428.93;105462;1258;73520;-72
2022/11/06 01:29:55;;;;;;;8.50;3.70;;;;;;;11.50;71.93;101429.20;105501;1273;71959;-71
2022/11/06 01:32:24;;;;;;;10.70;4.30;;;;;;;11.47;71.74;101426.78;105518;1267;60089;-72
2022/11/06 01:34:53;;;;;;;8.40;3.70;;;;;;;11.48;71.57;101425.89;105487;1270;71365;-72
2022/11/06 01:37:22;;;;;;;8.50;4.00;;;;;;;11.47;71.29;101427.85;105481;1260;59044;-72
2022/11/06 01:39:51;;;;;;;8.80;3.60;;;;;;;11.42;71.42;101418.41;105543;1266;60806;-71
2022/11/06 01:42:20;;;;;;;7.20;4.00;;;;;;;11.42;71.31;101423.11;105520;1260;74006;-73
2022/11/06 01:45:23;;;;;;;6.90;3.40;;;;;;;11.37;71.36;101418.19;105490;1270;72396;-73
2022/11/06 01:47:52;;;;;;;5.70;3.20;;;;;;;11.37;70.98;101416.29;105337;1266;60093;-73
2022/11/06 01:50:21;;;;;;;7.50;3.70;;;;;;;11.36;71.06;101411.98;105423;1266;63075;-72
2022/11/06 01:52:51;;;;;;;7.00;3.80;;;;;;;11.28;71.04;101414.40;105332;1261;58836;-72
2022/11/06 01:55:34;;;;;;;8.60;3.60;;;;;;;11.25;70.90;101418.94;105352;1275;61194;-70
2022/11/06 01:58:06;;;;;;;8.40;4.10;;;;;;;11.27;70.79;101420.19;105334;1268;73851;-71
2022/11/06 02:00:35;;;;;;;6.50;3.40;;;;;;;11.31;71.02;101423.31;105442;1260;72378;-72
2022/11/06 02:03:04;;;;;;;7.70;4.40;;;;;;;11.30;70.90;101428.77;105363;1275;70194;-72
2022/11/06 02:05:33;;;;;;;6.80;3.70;;;;;;;11.27;70.91;101429.84;105261;1274;63201;-72
2022/11/06 02:08:02;;;;;;;8.40;4.00;;;;;;;11.21;70.92;101434.17;105721;1261;61302;-71
2022/11/06 02:10:33;;;;;;;11.30;4.20;;;;;;;11.24;70.87;101430.73;105465;1267;59186;-72
2022/11/06 02:13:23;;;;;;;8.70;3.90;;;;;;;11.22;70.86;101433.64;105432;1261;72797;-72
2022/11/06 02:16:22;;;;;;;9.00;4.30;;;;;;;11.18;70.98;101434.24;105691;1261;73530;-72
2022/11/06 02:19:54;;;;;;;7.40;3.90;;;;;;;11.16;70.87;101435.40;105464;1275;59250;-71
2022/11/06 02:22:47;;;;;;;7.60;3.60;;;;;;;11.17;70.73;101434.67;105222;1261;64194;-71
2022/11/06 02:25:57;;;;;;;8.20;3.70;;;;;;;11.11;71.13;101428.92;105478;1274;61876;-72
2022/11/06 02:28:49;;;;;;;6.90;3.70;;;;;;;11.07;71.12;101428.45;105497;1274;57535;-72
2022/11/06 02:31:25;;;;;;;7.90;4.30;;;;;;;11.06;71.34;101432.75;105445;1266;62732;-72
2022/11/06 02:34:03;;;;;;;6.00;3.60;;;;;;;11.03;71.49;101430.45;105512;1266;61638;-71
2022/11/06 02:36:39;;;;;;;8.90;3.90;;;;;;;11.02;71.69;101433.31;105482;1263;59054;-71
2022/11/06 02:39:13;;;;;;;9.30;4.20;;;;;;;11.04;71.75;101438.09;105465;1274;62524;-71
2022/11/06 02:41:46;;;;;;;7.70;3.90;;;;;;;10.98;72.09;101442.15;105393;1262;62889;-71
2022/11/06 02:44:19;;;;;;;;;;;;;;;10.96;72.03;101448.33;105468;1274;60152;-71
2022/11/06 02:47:04;;;;;;;10.40;4.10;;;;;;;10.91;72.37;101450.94;105404;1263;72900;-72
2022/11/06 02:50:14;;;;;;;8.70;3.90;;;;;;;10.93;72.43;101451.33;105447;1274;62446;-71
2022/11/06 02:52:59;;;;;;;9.90;4.40;;;;;;;10.96;72.62;101456.54;105374;1263;60212;-71
2022/11/06 02:55:48;;;;;;;8.80;4.50;;;;;;;10.96;72.75;101461.98;105535;1266;63022;-71
2022/11/06 02:58:47;;;;;;;10.00;4.30;;;;;;;10.94;72.91;101458.41;105478;1274;57583;-71
2022/11/06 03:01:29;;;;;;;8.80;4.70;;;;;;;10.96;72.91;101457.91;105481;1266;59643;-71
2022/11/06 03:04:10;;;;;;;11.70;4.00;;;;;;;10.93;73.16;101458.27;105395;1270;72737;-72
2022/11/06 03:06:48;;;;;;;9.80;3.90;;;;;;;10.98;72.78;101457.27;105466;1266;71835;-72
2022/11/06 03:09:24;;;;;;;6.90;3.80;;;;;;;10.93;73.22;101463.19;105473;1266;69604;-70
2022/11/06 03:12:11;;;;;;;10.40;3.80;;;;;;;10.93;73.47;101459.66;105421;1274;62325;-73
2022/11/06 03:14:50;;;;;;;7.10;4.40;;;;;;;10.94;73.48;101463.12;105428;1261;62133;-72
2022/11/06 03:17:55;;;;;;;8.40;3.80;;;;;;;10.96;73.59;101466.67;105440;1274;57361;-71
2022/11/06 03:20:56;;;;;;;7.40;4.10;;;;;;;10.95;73.65;101470.05;105420;1269;61924;-73
2022/11/06 03:23:41;;;;;;;8.80;4.10;;;;;;;10.89;74.16;101471.05;105382;1269;72113;-71
2022/11/06 03:26:24;;;;;;;7.60;4.40;;;;;;;10.86;74.21;101475.41;105466;1260;60878;-71
2022/11/06 03:29:10;;;;;;;;;;;;;;;10.88;74.29;101475.31;105338;1261;72735;-73
2022/11/06 03:31:52;;;;;;;9.60;4.40;;;;;;;10.89;74.18;101481.20;105392;1265;62687;-72
2022/11/06 03:34:39;;;;;;;10.20;4.80;;;;;;;10.90;74.16;101483.75;105448;1270;59223;-72
2022/11/06 03:37:18;;;;;;;8.30;4.60;;;;;;;10.85;74.50;101480.73;105400;1267;71423;-72
2022/11/06 03:39:53;;;;;;;7.20;4.20;;;;;;;10.87;74.49;101479.19;105465;1265;61447;-71
2022/11/06 03:42:27;;;;;;;7.50;4.10;;;;;;;10.88;74.72;101478.46;105469;1260;70225;-71
2022/11/06 03:45:02;;;;;;;8.70;4.30;;;;;;;10.89;74.55;101480.28;105473;1267;73328;-71
2022/11/06 03:47:42;;;;;;;8.00;4.40;;;;;;;10.88;74.59;101476.17;105506;1260;58223;-72
2022/11/06 03:50:37;;;;;;;7.40;4.50;;;;;;;10.89;74.72;101478.21;105543;1265;59097;-71
2022/11/06 03:53:34;;;;;;;7.80;4.00;;;;;;;10.87;74.75;101474.49;105552;1270;64549;-71
2022/11/06 03:56:13;;;;;;;9.30;4.40;;;;;;;10.85;75.01;101475.16;105477;1274;72020;-71
2022/11/06 03:58:47;;;;;;;10.40;4.60;;;;;;;10.83;75.15;101466.93;105508;1265;59815;-72
2022/11/06 04:01:24;;;;;;;9.70;4.10;;;;;;;10.84;75.08;101464.77;105505;1267;62303;-71
2022/11/06 04:04:05;;;;;;;9.30;4.00;;;;;;;10.84;75.05;101463.36;105466;1274;62820;-72
2022/11/06 04:06:53;;;;;;;7.90;4.30;;;;;;;10.87;74.86;101467.20;105491;1264;60724;-72
2022/11/06 04:15:14;;;;;;;8.50;4.30;;;;;;;10.81;74.84;101467.73;105507;1266;70747;-72
2022/11/06 04:17:43;;;;;;;7.90;4.10;;;;;;;10.82;74.72;101464.88;105500;1260;62900;-73
2022/11/06 04:23:39;;;;;;;12.10;4.40;;;;;;;10.78;74.96;101460.78;105475;1275;60625;-71
2022/11/06 04:26:36;;;;;;;7.80;4.00;;;;;;;10.78;75.04;101459.73;105515;1275;64139;-72
2022/11/06 04:29:28;;;;;;;9.50;4.10;;;;;;;10.80;74.93;101465.55;105506;1261;72913;-73
2022/11/06 04:32:21;;;;;;;8.30;4.10;;;;;;;10.74;75.02;101465.56;105506;1266;59733;-73
2022/11/06 04:35:09;;;;;;;7.00;4.50;;;;;;;10.74;75.09;101463.80;105562;1262;62788;-72
2022/11/06 04:37:56;;;;;;;7.30;4.40;;;;;;;10.77;74.92;101467.09;105618;1270;61921;-72
2022/11/06 04:40:37;;;;;;;6.00;4.00;;;;;;;10.74;74.80;101468.13;105712;1264;57401;-73
2022/11/06 04:43:50;;;;;;;11.50;4.80;;;;;;;10.74;74.80;101469.92;105559;1266;62397;-72
2022/11/06 04:46:31;;;;;;;9.80;4.20;;;;;;;10.76;74.68;101470.99;105548;1273;60829;-72
2022/11/06 04:49:04;;;;;;;8.60;4.30;;;;;;;10.78;74.38;101473.64;105533;1259;59821;-73
2022/11/06 04:51:36;;;;;;;;;;;;;;;10.78;74.39;101476.27;105490;1269;62432;-73
2022/11/06 04:54:09;;;;;;;9.30;3.80;;;;;;;10.73;74.58;101472.41;105546;1273;58721;-72
2022/11/06 04:56:38;;;;;;;10.80;4.10;;;;;;;10.72;74.59;101471.25;105477;1273;58993;-72
2022/11/06 04:59:16;;;;;;;6.60;4.00;;;;;;;10.72;74.42;101475.79;105438;1275;62962;-71
2022/11/06 05:01:45;;;;;;;8.60;4.10;;;;;;;10.71;74.40;101478.29;105526;1274;61447;-73
2022/11/06 05:04:15;;;;;;;8.30;4.00;;;;;;;10.72;74.44;101478.24;105437;1270;59423;-72
2022/11/06 05:06:44;;;;;;;13.10;4.80;;;;;;;10.72;74.30;101476.12;105446;1270;73419;-72
2022/11/06 05:09:12;;;;;;;9.50;4.50;;;;;;;10.74;74.16;101473.92;105469;1260;62697;-72
2022/11/06 05:11:41;;;;;;;7.70;4.10;;;;;;;10.75;74.09;101475.92;105467;1270;60507;-73
2022/11/06 05:14:10;;;;;;;7.40;4.10;;;;;;;10.74;74.12;101478.95;105587;1275;64031;-73
2022/11/06 05:16:39;;;;;;;7.10;4.40;;;;;;;10.73;74.00;101481.45;105690;1262;61160;-73
2022/11/06 05:19:08;;;;;;;7.70;3.60;;;;;;;10.72;74.46;101478.56;105576;1265;59970;-74
2022/11/06 05:24:24;;;;;;;7.90;4.00;;;;;;;10.71;73.62;101487.30;105490;1267;61468;-72
2022/11/06 05:26:53;;;;;;;8.40;3.70;;;;;;;10.71;73.72;101490.80;105480;1263;59843;-73
2022/11/06 05:29:27;;;;;;;7.70;4.10;;;;;;;10.72;73.69;101491.28;105484;1270;73162;-72
2022/11/06 05:31:56;;;;;;;11.70;4.50;;;;;;;10.74;73.61;101491.30;105464;1270;72603;-72
2022/11/06 05:34:24;;;;;;;6.10;3.60;;;;;;;10.76;73.06;101493.97;105484;1267;69307;-72
2022/11/06 05:36:53;;;;;;;7.10;4.40;;;;;;;10.74;73.25;101502.11;105405;1265;73938;-71
2022/11/06 05:39:22;;;;;;;8.50;4.30;;;;;;;10.75;72.96;101504.19;105485;1260;59187;-72
2022/11/06 05:41:51;;;;;;;10.20;3.60;;;;;;;10.77;72.77;101508.75;105511;1263;59001;-73
2022/11/06 05:44:20;;;;;;;7.70;3.70;;;;;;;10.74;72.66;101516.27;105508;1270;63194;-71
2022/11/06 05:46:49;;;;;;;7.20;4.00;;;;;;;10.74;72.76;101520.40;105544;1267;72073;-74
2022/11/06 05:49:18;;;;;;;10.00;3.90;;;;;;;10.73;72.70;101523.78;105586;1260;70274;-72
2022/11/06 05:51:46;;;;;;;7.30;3.90;;;;;;;10.75;72.44;101523.98;105763;1271;73606;-74
2022/11/06 05:54:15;;;;;;;8.80;4.40;;;;;;;10.73;72.19;101525.52;105559;1267;60790;-75
2022/11/06 05:56:44;;;;;;;9.30;4.40;;;;;;;10.73;72.32;101524.32;105468;1273;58571;-75
2022/11/06 05:59:13;;;;;;;7.10;3.70;;;;;;;10.71;72.25;101526.89;105620;1267;62092;-72
2022/11/06 06:01:42;;;;;;;8.50;4.00;;;;;;;10.73;72.09;101525.22;105458;1270;61024;-72
2022/11/06 06:04:11;;;;;;;11.60;4.30;;;;;;;10.75;71.97;101524.59;105544;1266;70915;-74
2022/11/06 06:06:41;;;;;;;6.50;3.50;;;;;;;10.72;72.05;101527.55;105524;1275;62665;-73
2022/11/06 06:09:09;;;;;;;7.40;4.00;;;;;;;10.74;71.96;101534.52;105592;1263;61814;-79
2022/11/06 06:11:38;;;;;;;8.40;4.10;;;;;;;10.74;71.85;101538.36;105581;1275;57579;-77
2022/11/06 06:14:07;;;;;;;7.70;4.20;;;;;;;10.75;71.70;101540.91;105712;1266;63932;-77
2022/11/06 06:16:35;;;;;;;6.90;4.40;;;;;;;10.72;71.63;101542.69;105730;1264;63147;-77
2022/11/06 06:19:04;;;;;;;7.00;3.80;;;;;;;10.70;71.64;101540.91;105605;1264;59090;-77
2022/11/06 06:21:33;;;;;;;8.20;4.00;;;;;;;10.72;71.73;101539.54;105570;1270;63193;-76
2022/11/06 06:24:04;;;;;;;10.30;4.60;;;;;;;10.72;71.89;101537.27;105593;1264;62593;-76
2022/11/06 06:26:32;;;;;;;6.40;3.70;;;;;;;10.72;71.62;101535.91;105554;1263;59088;-78
2022/11/06 06:29:02;;;;;;;8.40;4.30;;;;;;;10.71;71.31;101535.40;105561;1269;63454;-76
2022/11/06 06:31:30;;;;;;;7.40;4.30;;;;;;;10.71;71.29;101540.84;105591;1262;71143;-76
2022/11/06 06:33:59;;;;;;;7.40;3.70;;;;;;;10.72;71.20;101538.52;105634;1260;71383;-77
2022/11/06 06:36:28;;;;;;;9.00;4.50;;;;;;;10.68;71.21;101542.39;105615;1262;63655;-77
2022/11/06 06:38:57;;;;;;;8.60;4.10;;;;;;;10.66;71.23;101540.45;105622;1269;62311;-77
2022/11/06 06:41:25;;;;;;;7.10;3.80;;;;;;;10.65;71.16;101545.73;105571;1266;58986;-77
2022/11/06 06:43:54;;;;;;;8.90;4.30;;;;;;;10.62;70.86;101547.79;105594;1275;71531;-76
2022/11/06 06:46:23;;;;;;;7.70;3.60;;;;;;;10.65;70.81;101542.58;105711;1263;72124;-78
2022/11/06 06:48:51;;;;;;;8.00;3.80;;;;;;;10.59;70.62;101543.81;105747;1266;71090;-77
2022/11/06 06:51:20;;;;;;;9.10;4.20;;;;;;;10.62;70.44;101548.00;105812;1271;63754;-77
2022/11/06 06:53:51;;;;;;;8.20;3.90;;;;;;;10.60;70.20;101549.17;105629;1269;60423;-76
2022/11/06 06:56:20;;;;;;;8.40;4.00;;;;;;;10.55;70.32;101553.42;105474;1269;59118;-77
2022/11/06 06:58:53;;;;;;;9.00;4.10;;;;;;;10.61;70.35;101554.48;105678;1274;62138;-78
2022/11/06 07:01:22;;;;;;;;;;;;;;;10.61;70.28;101549.77;105585;1267;69324;-77
2022/11/06 07:03:51;;;;;;;7.80;4.20;;;;;;;10.63;70.39;101552.80;105626;1269;59499;-73
2022/11/06 07:06:20;;;;;;;6.90;4.00;;;;;;;10.64;70.18;101549.92;105546;1266;62680;-69
2022/11/06 07:08:53;;;;;;;14.10;4.80;;;;;;;10.63;70.09;101547.55;105519;1266;59004;-73
2022/11/06 07:11:22;;;;;;;;;;;;;;;10.58;70.17;101548.71;105669;1265;59085;-73
2022/11/06 07:13:51;;;;;;;10.80;4.70;;;;;;;10.53;70.16;101544.63;105742;1265;72768;-80
2022/11/06 07:16:20;;;;;;;12.60;4.90;;;;;;;10.55;70.07;101554.30;105646;1260;72868;-75
2022/11/06 07:18:49;;;;;;;9.00;4.60;;;;;;;10.56;70.21;101557.74;105527;1269;59019;-75
2022/11/06 07:21:18;;;;;;;8.30;4.80;;;;;;;10.58;70.02;101552.02;105453;1265;74162;-72
2022/11/06 07:23:47;;;;;;;8.20;4.50;;;;;;;10.60;69.82;101552.29;105436;1260;62364;-74
2022/11/06 07:26:16;;;;;;;9.70;4.40;;;;;;;10.65;69.67;101553.55;107537;1261;60997;-73
2022/11/06 07:28:44;;;;;;;9.40;4.90;;;;;;;10.67;69.84;101553.92;107659;1260;73522;-73
2022/11/06 07:31:13;;;;;;;7.40;4.70;;;;;;;10.71;69.80;101551.10;107825;1264;61538;-77
2022/11/06 07:33:42;;;;;;;8.80;4.70;;;;;;;10.76;69.67;101549.23;107605;1269;59033;-78
2022/11/06 07:36:12;;;;;;;8.00;4.70;;;;;;;10.71;69.63;101549.85;107691;1260;73879;-76
2022/11/06 07:38:42;;;;;;;10.40;4.80;;;;;;;10.75;69.44;101549.27;107502;1269;57628;-74
2022/11/06 07:41:14;;;;;;;12.70;5.40;;;;;;;10.82;69.14;101553.38;107640;1261;57142;-72
2022/11/06 07:43:43;;;;;;;8.80;4.90;;;;;;;10.82;69.17;101556.88;107645;1266;73419;-76
2022/11/06 07:46:12;;;;;;;11.30;5.50;;;;;;;10.95;68.94;101554.38;107711;1263;71733;-84
2022/11/06 07:48:41;;;;;;;11.00;7.00;;;;;;;11.00;68.79;101557.02;107540;1268;59820;-74
2022/11/06 07:51:10;;;;;;;11.60;5.50;;;;;;;11.04;68.40;101558.14;107630;1260;73805;-72
2022/11/06 07:53:40;;;;;;;12.00;6.10;;;;;;;11.08;68.45;101559.33;107581;1266;60121;-72
2022/11/06 07:56:08;;;;;;;9.30;5.90;;;;;;;11.11;68.28;101558.95;107702;1264;62590;-73
2022/11/06 07:58:37;;;;;;;9.60;5.00;;;;;;;11.13;68.19;101556.24;107671;1270;62418;-74
2022/11/06 08:01:16;;;;;;;10.30;5.00;;;;;;;11.09;68.10;101555.79;107620;1260;61373;-73
2022/11/06 08:03:46;;;;;;;9.40;5.20;;;;;;;11.13;67.88;101558.53;107610;1266;58957;-71
2022/11/06 08:06:15;;;;;;;9.30;5.40;;;;;;;11.10;67.73;101559.71;107656;1260;73696;-73
2022/11/06 08:08:43;;;;;;;8.40;4.90;;;;;;;11.13;67.88;101560.55;107533;1266;63066;-72
2022/11/06 08:11:13;;;;;;;9.20;5.10;;;;;;;11.18;67.66;101557.45;107639;1269;57203;-72
2022/11/06 08:13:42;;;;;;;11.40;5.00;;;;;;;11.24;67.52;101556.58;107593;1261;62649;-74
2022/11/06 08:16:13;;;;;;;8.80;5.10;;;;;;;11.32;67.40;101555.91;107842;1261;61421;-73
2022/11/06 08:18:42;;;;;;;11.10;5.80;;;;;;;11.44;66.88;101552.58;107867;1261;60583;-75
2022/11/06 08:21:11;;;;;;;9.90;5.50;;;;;;;11.41;66.65;101551.55;107655;1263;62295;-73
2022/11/06 08:23:40;;;;;;;10.60;5.10;;;;;;;11.39;66.86;101554.12;107813;1258;61901;-71
2022/11/06 08:26:10;;;;;;;10.50;5.40;;;;;;;11.42;66.85;101554.23;107661;1262;61308;-73
2022/11/06 08:28:38;;;;;;;11.20;5.10;;;;;;;11.57;66.65;101554.49;107566;1261;75042;-72
2022/11/06 08:31:08;;;;;;;10.70;5.30;;;;;;;11.53;66.47;101556.19;107639;1257;61887;-72
2022/11/06 08:33:37;;;;;;;10.30;5.20;;;;;;;11.59;66.40;101557.20;107517;1260;70395;-74
2022/11/06 08:36:08;;;;;;;10.50;5.90;;;;;;;11.71;65.98;101560.30;107341;1265;63581;-72
2022/11/06 08:38:36;;;;;;;13.90;5.10;;;;;;;11.66;65.76;101559.90;107428;1272;57494;-73
2022/11/06 08:41:11;;;;;;;9.20;5.30;;;;;;;11.83;65.52;101562.16;107416;1263;57670;-75
2022/11/06 08:43:40;;;;;;;12.80;6.30;;;;;;;11.86;65.20;101566.48;107484;1266;73479;-75
2022/11/06 08:46:10;;;;;;;9.00;5.50;;;;;;;11.93;65.34;101560.46;107676;1264;71263;-73
2022/11/06 08:48:38;;;;;;;11.20;5.80;;;;;;;12.16;64.88;101563.70;107519;1260;70746;-73
2022/11/06 08:51:07;;;;;;;8.80;6.00;;;;;;;12.32;64.19;101565.60;107576;1260;62746;-74
2022/11/06 08:53:36;;;;;;;10.30;5.50;;;;;;;12.41;63.76;101566.42;107596;1269;57604;-75
2022/11/06 08:56:05;;;;;;;13.30;5.10;;;;;;;12.54;63.21;101564.16;107395;1269;365387;-73
2022/11/06 08:58:34;;;;;;;7.60;4.90;;;;;;;12.54;63.18;101564.47;107615;1262;61958;-73
2022/11/06 09:01:03;;;;;;;11.90;5.30;;;;;;;12.54;63.32;101562.57;107766;1260;72234;-74
2022/11/06 09:03:31;;;;;;;9.20;4.90;;;;;;;12.52;63.23;101564.25;107486;1266;70318;-74
2022/11/06 09:06:00;;;;;;;10.40;5.10;;;;;;;12.54;63.35;101568.15;107652;1260;63238;-75
2022/11/06 09:08:29;;;;;;;10.80;5.40;;;;;;;12.51;63.66;101566.81;107621;1263;60123;-77
2022/11/06 09:10:58;;;;;;;11.60;6.50;;;;;;;12.64;63.54;101573.37;107610;1260;60005;-74
2022/11/06 09:13:26;;;;;;;7.30;4.90;;;;;;;12.55;63.41;101571.73;107665;1260;63607;-74
2022/11/06 09:15:55;;;;;;;9.10;5.10;;;;;;;12.54;63.52;101569.52;107820;1258;60652;-73
2022/11/06 09:18:23;;;;;;;11.00;5.30;;;;;;;12.51;63.51;101566.10;107685;1260;71400;-75
2022/11/06 09:20:57;;;;;;;11.10;5.60;;;;;;;12.48;63.57;101559.84;107599;1271;63504;-73
2022/11/06 09:23:25;;;;;;;8.40;5.10;;;;;;;12.48;63.64;101560.84;107616;1263;60166;-74
2022/11/06 09:25:57;;;;;;;10.50;5.20;;;;;;;12.49;63.66;101560.05;107648;1267;57709;-73
2022/11/06 09:28:25;;;;;;;10.90;6.50;;;;;;;12.64;63.55;101559.11;107532;1263;72756;-72
2022/11/06 09:30:54;;;;;;;11.00;5.50;;;;;;;12.70;63.45;101559.71;107769;1261;62057;-74
2022/11/06 09:33:22;;;;;;;9.50;5.70;;;;;;;12.78;63.11;101557.78;107724;1266;69559;-72
2022/11/06 09:35:51;;;;;;;10.40;5.60;;;;;;;12.88;62.82;101560.60;107655;1260;63770;-73
2022/11/06 09:38:20;;;;;;;14.10;6.20;;;;;;;12.87;62.99;101556.10;107774;1260;57518;-73
2022/11/06 09:40:55;;;;;;;12.90;5.70;;;;;;;12.81;63.37;101554.80;107675;1265;58096;-73
2022/11/06 09:44:05;;;;;;;10.20;5.20;;;;;;;13.00;62.78;101556.60;107699;1260;72727;-72
2022/11/06 09:46:42;;;;;;;11.30;5.80;;;;;;;13.06;62.51;101560.77;107838;1258;71706;-72
2022/11/06 09:49:40;;;;;;;9.90;6.10;;;;;;;13.22;62.16;101559.44;107615;1258;59675;-76
2022/11/06 09:52:49;;;;;;;9.70;5.60;;;;;;;13.24;62.36;101560.06;107567;1267;73845;-73
2022/11/06 09:55:28;;;;;;;8.90;5.20;;;;;;;13.35;62.11;101560.50;107728;1258;61665;-73
2022/11/06 09:58:04;;;;;;;10.20;5.60;;;;;;;13.45;61.75;101563.12;107662;1260;57381;-73
2022/11/06 10:00:32;;;;;;;11.00;5.80;;;;;;;13.50;61.47;101558.22;107526;1270;71735;-73
2022/11/06 10:03:19;;;;;;;20.20;6.70;;;;;;;13.61;61.38;101557.64;107861;1258;61365;-73
2022/11/06 10:05:52;;;;;;;11.40;5.80;;;;;;;13.71;61.10;101556.55;107791;1260;59229;-73
2022/11/06 10:08:22;;;;;;;9.70;5.60;;;;;;;13.71;61.40;101555.84;107573;1257;73787;-74
2022/11/06 10:10:57;;;;;;;10.20;5.10;;;;;;;13.77;61.35;101557.14;107775;1260;57657;-73
2022/11/06 10:13:50;;;;;;;12.20;6.70;;;;;;;13.81;61.25;101549.88;107701;1256;60085;-74
2022/11/06 10:16:34;;;;;;;9.80;5.40;;;;;;;13.87;61.12;101551.34;107671;1260;71406;-74
2022/11/06 10:19:13;;;;;;;10.70;5.60;;;;;;;13.84;61.42;101552.94;107854;1257;61767;-73
2022/11/06 10:21:50;;;;;;;9.90;5.80;;;;;;;13.78;61.86;101548.48;107575;1264;68509;-74
2022/11/06 10:24:32;;;;;;;12.10;5.80;;;;;;;13.69;62.18;101551.93;107555;1261;73252;-73
2022/11/06 10:27:09;;;;;;;10.40;5.70;;;;;;;13.88;62.11;101546.53;107607;1260;57641;-74
2022/11/06 10:30:02;;;;;;;13.40;5.70;;;;;;;14.03;61.88;101541.24;107662;1262;57605;-73
2022/11/06 10:32:43;;;;;;;10.20;6.20;;;;;;;14.35;61.40;101535.69;107656;1260;72576;-73
2022/11/06 10:35:19;;;;;;;11.20;5.70;;;;;;;14.33;61.19;101537.43;107862;1257;62049;-72
2022/11/06 10:38:06;;;;;;;10.10;6.00;;;;;;;14.52;60.71;101537.77;107602;1269;69632;-75
2022/11/06 10:40:35;;;;;;;10.10;5.50;;;;;;;14.37;60.82;101531.52;107704;1259;72718;-77
2022/11/06 10:43:28;;;;;;;10.30;5.60;;;;;;;14.45;60.47;101531.12;107723;1260;57554;-77
2022/11/06 10:46:53;;;;;;;10.20;5.80;;;;;;;14.44;60.49;101526.64;107784;1259;57661;-78
2022/11/06 10:49:33;;;;;;;10.50;5.60;;;;;;;14.69;60.54;101527.00;107410;1269;74037;-79
2022/11/06 10:52:36;;;;;;;11.80;5.50;;;;;;;14.68;60.33;101528.87;107923;1258;61236;-81
2022/11/06 10:55:38;;;;;;;10.80;5.80;;;;;;;14.69;60.29;101524.88;107798;1261;71084;-81
2022/11/06 10:58:16;;;;;;;10.90;5.60;;;;;;;14.78;60.19;101520.73;107787;1259;73425;-80
2022/11/06 11:00:45;;;;;;;11.20;6.00;;;;;;;14.94;59.61;101520.53;107830;1257;57070;-79
2022/11/06 11:03:29;;;;;;;11.20;5.70;;;;;;;14.72;60.24;101521.69;107636;1258;57140;-79
2022/11/06 11:05:57;;;;;;;11.30;6.70;;;;;;;14.88;59.84;101518.89;107738;1258;72532;-77
2022/11/06 11:08:33;;;;;;;13.20;5.90;;;;;;;14.88;59.80;101516.56;107855;1256;62052;-81
2022/11/06 11:11:17;;;;;;;12.00;6.40;;;;;;;14.91;59.96;101518.14;107791;1266;59000;-81
2022/11/06 11:13:50;;;;;;;9.10;6.10;;;;;;;14.58;60.89;101518.20;107640;1265;72967;-83
2022/11/06 11:16:23;;;;;;;10.30;6.50;;;;;;;14.58;61.13;101520.02;107736;1264;57370;-82
2022/11/06 11:18:52;;;;;;;11.60;6.40;;;;;;;14.51;61.40;101515.57;107683;1263;60353;-77
2022/11/06 11:21:26;;;;;;;13.40;6.30;;;;;;;14.68;61.18;101512.51;107626;1267;73507;-79
2022/11/06 11:24:06;;;;;;;11.50;6.30;;;;;;;14.73;61.12;101517.27;107769;1261;61925;-77
2022/11/06 11:26:50;;;;;;;13.40;6.80;;;;;;;14.69;61.18;101520.33;107619;1266;59824;-78
2022/11/06 11:29:32;;;;;;;13.70;6.40;;;;;;;14.71;61.12;101519.89;107640;1267;64379;-78
2022/11/06 11:32:05;;;;;;;13.50;6.80;;;;;;;14.73;61.25;101522.13;107579;1263;61645;-74
2022/11/06 11:34:36;;;;;;;;;;;;;;;14.87;60.88;101522.50;107658;1260;61666;-77
2022/11/06 11:37:07;;;;;;;13.80;7.70;;;;;;;14.82;61.12;101518.79;107591;1260;74080;-77
2022/11/06 11:39:42;;;;;;;9.90;7.40;;;;;;;14.67;61.40;101518.40;107615;1261;71602;-77
2022/11/06 11:42:31;;;;;;;9.90;6.70;;;;;;;14.57;61.59;101515.09;107559;1266;69049;-76
2022/11/06 11:45:09;;;;;;;14.00;7.20;;;;;;;14.80;61.21;101512.33;107746;1257;73231;-80
2022/11/06 11:47:45;;;;;;;12.90;6.70;;;;;;;14.80;61.26;101507.57;107515;1266;60782;-79
2022/11/06 11:50:21;;;;;;;12.70;7.10;;;;;;;14.92;60.94;101508.61;107272;1263;60061;-78
2022/11/06 11:52:58;;;;;;;11.00;6.50;;;;;;;14.99;60.95;101505.20;107274;1266;62668;-77
2022/11/06 11:55:29;;;;;;;12.60;7.00;;;;;;;15.18;60.42;101503.77;107553;1257;69571;-80
2022/11/06 11:58:00;;;;;;;15.40;7.40;;;;;;;15.15;60.34;101502.73;107472;1258;70471;-80
2022/11/06 12:00:29;;;;;;;12.20;6.30;;;;;;;15.24;60.29;101502.02;107467;1263;73412;-81
2022/11/06 12:03:04;;;;;;;11.80;6.60;;;;;;;15.15;60.25;101499.08;107331;1269;57538;-77
2022/11/06 12:05:38;;;;;;;10.30;6.10;;;;;;;14.93;60.89;101496.59;107513;1273;57173;-79